Terminal Aerodrome Forecast
Issued by NWS

Home | Current Version | Previous Version | Text Only | Print | Product List | Glossary On
Versions: 1 2 3 4 5 6 7 8 9 10 11 12 13 14 15 16 17 18 19 20 21 22 23 24 25 26 27 28 29 30
000
FTUS41 KBGM 021212 AAA
TAFELM
TAF AMD
KELM 021212Z 0212/0312 VRB03KT 4SM BR OVC008
      TEMPO 0213/0215 P6SM NSW OVC012
     FM021500 03005KT P6SM SCT015 OVC025
     FM022100 03005KT P6SM SCT025 BKN040
     FM030100 VRB03KT P6SM SCT040
     FM030600 VRB03KT 5SM BR BKN025
      TEMPO 0309/0312 2SM BR=

USA.gov is the U.S. government's official web portal to all federal, state and local government web resources and services.